createdAt,value
2022-08-09T00:00:06.455Z,105.6
2022-08-09T00:10:01.308Z,107.5
2022-08-09T00:15:07.143Z,110.8
2022-08-09T00:25:10.138Z,116.1
2022-08-09T00:35:01.332Z,125.2
2022-08-09T00:45:14.963Z,129.4
2022-08-09T00:50:01.873Z,129.7
2022-08-09T00:55:01.981Z,129.9
2022-08-09T01:00:20.828Z,132.8
2022-08-09T01:05:03.548Z,134.2
2022-08-09T01:10:01.246Z,128.0
2022-08-09T01:15:09.972Z,124.2
2022-08-09T01:20:03.522Z,122.4
2022-08-09T01:25:02.902Z,118.8
2022-08-09T01:40:03.111Z,122.6
2022-08-09T01:45:01.541Z,119.8
2022-08-09T01:50:06.670Z,115.9
2022-08-09T01:55:01.529Z,113.7
2022-08-09T02:05:15.223Z,107.7
2022-08-09T02:10:04.561Z,106.4
2022-08-09T02:15:01.690Z,105.8
2022-08-09T02:20:02.412Z,108.8
2022-08-09T02:25:01.768Z,109.3
2022-08-09T02:30:01.922Z,107.1
2022-08-09T02:40:03.327Z,104.5
2022-08-09T02:45:01.746Z,99.2
2022-08-09T02:50:02.590Z,96.8
2022-08-09T02:55:19.884Z,96.2
2022-08-09T03:05:06.003Z,91.8
2022-08-09T03:10:02.081Z,91.7
2022-08-09T03:15:01.679Z,91.2
2022-08-09T03:20:11.374Z,92.1
2022-08-09T03:30:04.608Z,96.3
2022-08-09T03:35:14.750Z,96.6
2022-08-09T03:40:05.131Z,97.4
2022-08-09T03:45:03.838Z,97.4
2022-08-09T03:55:14.278Z,99.0
2022-08-09T04:00:01.675Z,102.6
2022-08-09T04:05:27.019Z,104.5
2022-08-09T04:10:06.464Z,106.5
2022-08-09T04:20:02.903Z,110.0
2022-08-09T04:25:03.290Z,108.0
2022-08-09T04:30:02.421Z,109.4
2022-08-09T04:35:01.848Z,109.3
2022-08-09T04:40:02.326Z,108.0
2022-08-09T04:45:02.137Z,107.8
2022-08-09T04:50:01.711Z,108.8
2022-08-09T04:55:11.875Z,110.6
2022-08-09T05:00:05.199Z,111.6
2022-08-09T05:05:10.259Z,112.4
2022-08-09T05:10:02.482Z,113.6
2022-08-09T05:15:11.327Z,116.6
2022-08-09T05:20:06.521Z,112.3
2022-08-09T05:25:02.976Z,108.5
2022-08-09T05:30:02.435Z,104.4
2022-08-09T05:40:01.581Z,94.0
2022-08-09T05:45:01.570Z,93.3
2022-08-09T05:55:08.584Z,99.4
2022-08-09T06:00:01.946Z,99.7
2022-08-09T06:05:01.490Z,98.8
2022-08-09T06:15:09.933Z,89.2
2022-08-09T06:20:06.480Z,85.5
2022-08-09T06:25:01.982Z,83.2
2022-08-09T06:30:10.486Z,80.9
2022-08-09T06:35:06.521Z,87.3
2022-08-09T06:55:12.722Z,135.6
2022-08-09T07:05:01.332Z,170.6
2022-08-09T07:20:01.350Z,202.7
2022-08-09T07:25:01.414Z,207.3
2022-08-09T07:30:02.491Z,219.0
2022-08-09T07:35:07.840Z,229.6
2022-08-09T07:40:01.558Z,238.0
2022-08-09T07:45:22.938Z,263.0
2022-08-09T07:50:09.265Z,280.8
2022-08-09T07:55:10.044Z,290.5
2022-08-09T08:00:04.219Z,299.7
2022-08-09T08:05:01.699Z,312.7
2022-08-09T08:10:11.267Z,316.2
2022-08-09T08:15:01.544Z,318.5
2022-08-09T08:20:01.412Z,321.3
2022-08-09T08:25:02.574Z,321.8
2022-08-09T08:30:04.701Z,327.0
2022-08-09T08:35:01.534Z,328.8
2022-08-09T08:40:03.104Z,333.6
2022-08-09T08:45:14.143Z,334.5
2022-08-09T08:50:03.092Z,340.0
2022-08-09T08:55:05.539Z,340.8
2022-08-09T09:00:02.027Z,343.2
2022-08-09T09:05:10.271Z,343.6
2022-08-09T09:10:04.892Z,347.6
2022-08-09T09:15:01.599Z,349.6
2022-08-09T09:20:01.425Z,352.9
2022-08-09T09:40:03.065Z,363.4
2022-08-09T09:45:03.400Z,367.7
2022-08-09T09:50:17.090Z,368.2
2022-08-09T10:10:03.726Z,375.0
2022-08-09T10:15:01.714Z,367.1
2022-08-09T10:20:01.054Z,370.7
2022-08-09T10:40:01.781Z,383.4
2022-08-09T10:45:01.711Z,372.0
2022-08-09T10:50:03.345Z,370.3
2022-08-09T10:55:01.478Z,364.1
2022-08-09T11:10:03.067Z,337.2
2022-08-09T11:30:21.703Z,326.4
2022-08-09T11:35:01.134Z,321.8
2022-08-09T11:40:01.401Z,322.8
2022-08-09T11:55:02.159Z,334.6
2022-08-09T12:10:02.600Z,310.6
2022-08-09T12:15:09.338Z,316.4
2022-08-09T12:20:01.731Z,315.7
2022-08-09T12:25:01.679Z,315.3
2022-08-09T12:35:04.981Z,323.1
2022-08-09T12:40:02.546Z,329.0
2022-08-09T12:50:03.146Z,321.9
2022-08-09T13:10:02.819Z,309.0
2022-08-09T13:20:16.138Z,301.5
2022-08-09T13:25:04.044Z,291.7
2022-08-09T13:35:02.465Z,274.8
2022-08-09T13:50:02.148Z,218.3
2022-08-09T13:55:07.172Z,193.6
2022-08-09T14:00:01.436Z,156.0
2022-08-09T14:05:01.696Z,124.6
2022-08-09T14:35:01.015Z,229.4
2022-08-09T14:40:01.190Z,218.1
2022-08-09T14:45:15.046Z,201.4
2022-08-09T14:50:02.812Z,196.6
2022-08-09T14:55:01.086Z,171.3
2022-08-09T15:00:01.367Z,149.2
2022-08-09T15:05:01.057Z,121.8
2022-08-09T15:10:14.143Z,94.2
2022-08-09T15:15:01.842Z,63.9
2022-08-09T15:20:03.662Z,41.0
2022-08-09T15:25:04.085Z,20.2
2022-08-09T15:35:01.393Z,6.5
2022-08-09T16:30:02.696Z,2.4
2022-08-09T16:35:02.715Z,8.9
2022-08-09T16:40:06.007Z,16.2
2022-08-09T16:55:01.127Z,39.4
2022-08-09T17:00:02.750Z,33.2
2022-08-09T17:05:01.262Z,25.9
2022-08-09T17:10:04.297Z,15.6
2022-08-09T17:15:01.323Z,6.0
2022-08-09T17:25:04.616Z,4.3
2022-08-09T17:30:12.710Z,12.0
2022-08-09T17:35:12.799Z,14.2
2022-08-09T17:40:01.580Z,26.1
2022-08-09T17:50:16.816Z,64.2
2022-08-09T17:55:01.603Z,79.8
2022-08-09T18:00:07.540Z,116.7
2022-08-09T18:05:01.158Z,142.4
2022-08-09T18:10:05.662Z,167.4
2022-08-09T18:15:04.853Z,196.3
2022-08-09T18:25:00.971Z,273.5
2022-08-09T18:35:00.987Z,337.9
2022-08-09T18:40:01.225Z,357.0
2022-08-09T18:45:08.913Z,362.0
2022-08-09T18:50:05.874Z,370.9
2022-08-09T19:00:04.795Z,385.5
2022-08-09T19:05:20.842Z,410.4
2022-08-09T19:10:18.076Z,418.6
2022-08-09T19:15:02.914Z,415.0
2022-08-09T19:20:02.519Z,426.0
2022-08-09T19:35:02.569Z,395.0
2022-08-09T19:40:05.894Z,394.6
2022-08-09T19:45:01.037Z,373.6
2022-08-09T19:55:01.363Z,342.1
2022-08-09T20:00:07.968Z,328.3
2022-08-09T20:05:02.526Z,314.2
2022-08-09T20:20:01.014Z,278.6
2022-08-09T20:25:01.173Z,267.2
2022-08-09T20:30:02.772Z,254.6
2022-08-09T20:35:02.191Z,243.6
2022-08-09T21:10:02.222Z,150.0
2022-08-09T21:15:02.031Z,146.2
2022-08-09T21:25:01.391Z,146.3
2022-08-09T21:30:01.459Z,144.0
2022-08-09T21:35:01.382Z,140.3
2022-08-09T21:40:01.484Z,135.8
2022-08-09T21:45:01.315Z,139.7
2022-08-09T21:50:03.439Z,131.3
2022-08-09T21:55:05.010Z,126.0
2022-08-09T22:00:02.016Z,121.8
2022-08-09T22:10:01.231Z,107.4
2022-08-09T22:15:01.482Z,106.5
2022-08-09T22:20:01.391Z,105.3
2022-08-09T22:30:01.902Z,101.2
2022-08-09T22:36:00.450Z,96.0
2022-08-09T22:40:01.939Z,90.5
2022-08-09T22:50:01.274Z,81.1
2022-08-09T22:55:01.411Z,77.5
2022-08-09T23:00:02.336Z,76.3
2022-08-09T23:05:06.096Z,78.2
2022-08-09T23:10:01.400Z,79.5
2022-08-09T23:15:01.493Z,81.9
2022-08-09T23:20:08.408Z,80.7
2022-08-09T23:25:01.369Z,79.4
2022-08-09T23:30:01.236Z,76.6
2022-08-09T23:35:01.430Z,73.9
2022-08-09T23:40:01.943Z,71.3
2022-08-09T23:45:01.361Z,69.6
2022-08-09T23:50:01.273Z,69.4
